Latest Coastal Weather Observations for Flinders Reef

IDQ60701

Issued at 1:51 am EST Saturday 17 November 2018 (issued every 10 minutes, with the page automatically refreshed every 10 minutes)

About coastal observations | Map of coastal stations | Coastal observations for QLD | Marine services | Other Formats
Station Details ID: 200783 Name: FLINDERS REEF Lat: -17.72 Lon: 148.45 Height: 2.6 m
Data from the previous 72 hours. | See also: Recent months at Flinders Reef
Date/Time
EST
Wind Sea
Height
m
Swell Vis
km
Cloud Weather Temp
°C
Press
hPa
Rain since
9am
mm
Dir  Spd
kts
Gust
kts
Height
m
Period
s
Dir
17/01:30am ESE 14 17 - - - - - - - 25.5 1011.8 -
17/01:24am E 15 - - - - - - - - 25.3 1011.7 -
17/01:00am E 15 18 - - - - - - - 25.6 1012.0 -
17/12:30am ESE 15 17 - - - - - - - 25.6 1012.5 -
17/12:24am E 16 - - - - - - - - 25.4 1012.5 -
17/12:00am E 15 19 - - - - - - - 25.4 1012.8 -
 
Date/Time
EST
Wind Sea
Height
m
Swell Vis
km
Cloud Weather Temp
°C
Press
hPa
Rain since
9am
mm
Dir  Spd
kts
Gust
kts
Height
m
Period
s
Dir
16/11:30pm ESE 17 20 - - - - - - - 25.4 1013.2 -
16/11:24pm ESE 17 - - - - - - - - 25.8 1013.2 -
16/11:00pm ESE 18 21 - - - - - - - 25.8 1013.5 -
16/10:30pm ESE 17 20 - - - - - - - 26.0 1013.5 -
16/10:24pm ESE 18 - - - - - - - - 25.9 1013.5 -
16/10:00pm ESE 18 21 - - - - - - - 25.9 1013.7 -
16/09:30pm ESE 18 21 - - - - - - - 25.9 1013.6 -
16/09:24pm ESE 19 - - - - - - - - 26.0 1013.5 -
16/09:00pm SE 18 21 - - - - - - - 26.0 1013.4 -
16/08:30pm SE 18 19 - - - - - - - 26.1 1013.4 -
16/08:24pm SE 17 - - - - - - - - 26.1 1013.3 -
16/08:00pm SE 17 19 - - - - - - - 26.1 1013.2 -
16/07:30pm SE 14 16 - - - - - - - 26.1 1013.3 -
16/07:24pm SE 14 - - - - - - - - 26.2 1013.2 -
16/07:00pm SE 15 18 - - - - - - - 26.0 1013.1 -
16/06:30pm SE 16 19 - - - - - - - 26.0 1012.9 -
16/06:24pm SE 16 - - - - - - - - 26.0 1012.8 -
16/06:00pm SE 15 18 - - - - - - - 26.1 1012.6 -
16/05:30pm SE 14 17 - - - - - - - 26.1 1012.2 -
16/05:24pm SE 14 - - - - - - - - 26.0 1012.0 -
16/05:00pm SSE 15 18 - - - - - - - 26.2 1011.8 -
16/04:30pm SSE 14 16 - - - - - - - 26.2 1011.7 -
16/04:24pm SSE 15 - - - - - - - - 26.2 1011.5 -
16/04:00pm SSE 14 17 - - - - - - - 26.1 1011.6 -
16/03:30pm SSE 13 15 - - - - - - - 26.0 1011.5 -
16/03:24pm SSE 13 - - - - - - - - 25.9 1011.5 -
16/03:00pm SSE 13 16 - - - - - - - 26.2 1011.7 -
16/02:30pm SSE 13 15 - - - - - - - 26.2 1012.0 -
16/02:24pm SSE 13 - - - - - - - - 26.2 1012.0 -
16/02:00pm SSE 12 15 - - - - - - - 26.2 1012.4 -
16/01:30pm SSE 11 14 - - - - - - - 26.1 1012.7 -
16/01:24pm SSE 11 - - - - - - - - 26.1 1012.7 -
16/01:00pm SSE 13 15 - - - - - - - 26.2 1013.0 -
16/12:30pm SSE 12 14 - - - - - - - 26.0 1013.5 -
16/12:24pm SSE 13 - - - - - - - - 26.2 1013.5 -
16/12:00pm SE 12 14 - - - - - - - 26.2 1013.9 -
16/11:30am SSE 12 14 - - - - - - - 26.1 1014.4 -
16/11:24am SSE 12 - - - - - - - - 26.3 1014.4 -
16/11:00am SE 12 14 - - - - - - - 26.4 1014.6 -
16/10:30am SE 12 14 - - - - - - - 26.4 1014.8 -
16/10:24am SE 12 - - - - - - - - 26.3 1014.8 -
16/10:00am SE 12 14 - - - - - - - 26.1 1015.1 -
16/09:30am SE 10 11 - - - - - - - 26.0 1015.2 -
16/09:24am SE 10 - - - - - - - - 26.0 1015.0 -
16/09:00am SE 11 13 - - - - - - - 26.2 1015.1 -
16/08:30am SE 12 14 - - - - - - - 26.4 1015.1 -
16/08:24am ESE 12 - - - - - - - - 26.1 1014.9 -
16/08:00am SE 12 14 - - - - - - - 26.3 1014.9 -
16/07:30am ESE 11 14 - - - - - - - 26.3 1014.8 -
16/07:24am ESE 12 - - - - - - - - 26.2 1014.7 -
16/07:00am ESE 11 13 - - - - - - - 25.9 1014.6 -
16/06:30am ESE 12 14 - - - - - - - 26.0 1014.3 -
16/06:24am ESE 12 - - - - - - - - 25.8 1014.1 -
16/06:00am SE 13 16 - - - - - - - 25.7 1014.1 -
16/05:30am SE 13 15 - - - - - - - 25.6 1013.9 -
16/05:24am SE 13 - - - - - - - - 25.6 1013.8 -
16/05:00am ESE 13 16 - - - - - - - 25.5 1013.6 -
16/04:30am ESE 14 16 - - - - - - - 25.6 1013.2 -
16/04:24am ESE 13 - - - - - - - - 25.7 1013.1 -
16/04:00am ESE 11 14 - - - - - - - 25.6 1013.1 -
16/03:30am ESE 11 13 - - - - - - - 25.6 1012.9 -
16/03:24am ESE 11 - - - - - - - - 25.5 1012.8 -
16/03:00am ESE 13 15 - - - - - - - 25.6 1012.9 -
16/02:30am ESE 14 16 - - - - - - - 25.7 1013.0 -
16/02:24am ESE 13 - - - - - - - - 25.6 1012.9 -
16/02:00am ESE 13 16 - - - - - - - 25.8 1013.1 -
16/01:30am ESE 14 17 - - - - - - - 25.6 1013.2 -
16/01:24am ESE 14 - - - - - - - - 25.6 1013.1 -
16/01:00am ESE 15 17 - - - - - - - 25.9 1013.3 -
16/12:30am ESE 15 18 - - - - - - - 26.0 1013.7 -
16/12:24am ESE 16 - - - - - - - - 25.8 1013.7 -
16/12:00am E 15 18 - - - - - - - 26.2 1014.1 -
 
Date/Time
EST
Wind Sea
Height
m
Swell Vis
km
Cloud Weather Temp
°C
Press
hPa
Rain since
9am
mm
Dir  Spd
kts
Gust
kts
Height
m
Period
s
Dir
15/11:30pm ESE 17 19 - - - - - - - 26.1 1014.5 -
15/11:24pm ESE 18 - - - - - - - - 26.0 1014.5 -
15/11:00pm ESE 18 20 - - - - - - - 26.0 1014.8 -
15/10:30pm ESE 16 19 - - - - - - - 26.1 1015.1 -
15/10:24pm ESE 17 - - - - - - - - 26.1 1015.0 -
15/10:00pm ESE 17 20 - - - - - - - 26.0 1015.2 -
15/09:30pm SE 17 19 - - - - - - - 25.9 1015.3 -
15/09:24pm SE 18 - - - - - - - - 26.0 1015.2 -
15/09:00pm SE 17 19 - - - - - - - 26.1 1015.4 -
15/08:30pm SE 17 19 - - - - - - - 26.2 1015.2 -
15/08:24pm SE 17 - - - - - - - - 26.1 1015.1 -
15/08:00pm SE 17 19 - - - - - - - 26.0 1015.2 -
15/07:30pm SSE 15 17 - - - - - - - 26.3 1015.0 -
15/07:24pm SSE 16 - - - - - - - - 26.4 1014.8 -
15/07:00pm SE 15 17 - - - - - - - 26.1 1014.6 -
15/06:30pm SSE 15 17 - - - - - - - 26.1 1014.2 -
15/06:24pm SE 15 - - - - - - - - 26.3 1014.1 -
15/06:00pm SE 14 16 - - - - - - - 26.4 1013.8 -
15/05:30pm SE 14 16 - - - - - - - 26.4 1013.6 -
15/05:24pm SSE 14 - - - - - - - - 26.4 1013.4 -
15/05:00pm SSE 13 16 - - - - - - - 26.3 1013.3 -
15/04:30pm SSE 14 16 - - - - - - - 26.2 1013.0 -
15/04:24pm SSE 14 - - - - - - - - 26.3 1012.9 -
15/04:00pm SE 13 15 - - - - - - - 26.5 1012.9 -
15/03:30pm SSE 13 16 - - - - - - - 26.4 1012.9 -
15/03:24pm SSE 13 - - - - - - - - 26.4 1012.7 -
15/03:00pm SSE 13 15 - - - - - - - 26.3 1013.0 -
15/02:30pm SE 12 15 - - - - - - - 26.3 1013.3 -
15/02:24pm SE 13 - - - - - - - - 26.2 1013.2 -
15/02:00pm SE 12 14 - - - - - - - 26.4 1013.3 -
15/01:30pm SE 12 14 - - - - - - - 26.6 1013.5 -
15/01:24pm SE 13 - - - - - - - - 26.4 1013.5 -
15/01:00pm SE 12 14 - - - - - - - 26.4 1013.9 -
15/12:30pm SE 12 14 - - - - - - - 26.2 1014.3 -
15/12:24pm SE 12 - - - - - - - - 26.3 1014.3 -
15/12:00pm ESE 11 13 - - - - - - - 26.3 1014.8 -
15/11:30am SE 11 14 - - - - - - - 26.3 1015.1 -
15/11:24am SE 11 - - - - - - - - 26.6 1015.0 -
15/11:00am SE 12 14 - - - - - - - 26.2 1015.3 -
15/10:30am SE 13 15 - - - - - - - 26.3 1015.4 -
15/10:24am SE 14 - - - - - - - - 26.3 1015.4 -
15/10:00am SE 14 15 - - - - - - - 26.3 1015.5 -
15/09:30am ESE 14 16 - - - - - - - 26.3 1015.8 -
15/09:24am ESE 13 - - - - - - - - 26.2 1015.6 -
15/09:00am ESE 14 16 - - - - - - - 26.4 1015.7 -
15/08:30am ESE 13 16 - - - - - - - 26.6 1015.7 -
15/08:24am ESE 14 - - - - - - - - 26.3 1015.6 -
15/08:00am ESE 13 15 - - - - - - - 26.3 1015.5 -
15/07:30am E 13 15 - - - - - - - 26.3 1015.2 -
15/07:24am E 14 - - - - - - - - 26.5 1015.1 -
15/07:00am ESE 15 17 - - - - - - - 26.4 1014.9 -
15/06:30am ESE 16 18 - - - - - - - 26.2 1014.5 -
15/06:24am ESE 17 - - - - - - - - 26.2 1014.3 -
15/06:00am ESE 15 17 - - - - - - - 26.0 1014.5 -
15/05:30am ESE 16 19 - - - - - - - 25.8 1014.0 -
15/05:24am ESE 16 - - - - - - - - 25.7 1013.8 -
15/05:00am E 15 19 - - - - - - - 25.9 1013.7 -
15/04:30am E 16 18 - - - - - - - 25.9 1013.1 -
15/04:24am E 14 - - - - - - - - 25.8 1012.9 -
15/04:00am E 14 16 - - - - - - - 25.9 1013.0 -
15/03:30am E 14 17 - - - - - - - 25.7 1012.8 -
15/03:24am E 13 - - - - - - - - 26.0 1012.7 -
15/03:00am E 15 18 - - - - - - - 25.7 1012.5 -
15/02:30am E 15 17 - - - - - - - 25.5 1012.5 -
15/02:24am E 16 - - - - - - - - 25.7 1012.3 -
15/02:00am E 15 18 - - - - - - - 25.6 1012.4 -
15/01:30am E 17 19 - - - - - - - 25.9 1012.7 -
15/01:24am E 17 - - - - - - - - 25.7 1012.6 -
15/01:00am E 17 21 - - - - - - - 25.8 1013.0 -
15/12:30am E 17 20 - - - - - - - 26.0 1013.3 -
15/12:24am E 17 - - - - - - - - 26.0 1013.3 -
15/12:00am E 17 19 - - - - - - - 25.9 1013.7 -
 
Date/Time
EST
Wind Sea
Height
m
Swell Vis
km
Cloud Weather Temp
°C
Press
hPa
Rain since
9am
mm
Dir  Spd
kts
Gust
kts
Height
m
Period
s
Dir
14/11:30pm E 16 19 - - - - - - - 25.8 1014.1 -
14/11:24pm E 17 - - - - - - - - 25.9 1014.1 -
14/11:00pm E 17 19 - - - - - - - 26.2 1014.4 -
14/10:30pm ESE 17 20 - - - - - - - 25.8 1014.5 -
14/10:24pm ESE 17 - - - - - - - - 26.0 1014.6 -
14/10:00pm ESE 16 19 - - - - - - - 26.0 1014.7 -
14/09:30pm SE 17 19 - - - - - - - 26.3 1014.7 -
14/09:24pm SE 17 - - - - - - - - 25.9 1014.6 -
14/09:00pm ESE 16 18 - - - - - - - 26.1 1014.6 -
14/08:30pm SE 15 17 - - - - - - - 25.8 1014.4 -
14/08:24pm SE 15 - - - - - - - - 26.0 1014.4 -
14/08:00pm ESE 15 17 - - - - - - - 26.0 1014.4 -
14/07:30pm SE 15 17 - - - - - - - 26.2 1014.2 -
14/07:24pm SE 15 - - - - - - - - 26.1 1014.0 -
14/07:00pm SE 15 17 - - - - - - - 26.1 1014.0 -
14/06:30pm SE 15 17 - - - - - - - 26.1 1013.8 -
14/06:24pm SE 14 - - - - - - - - 26.0 1013.6 -
14/06:00pm SE 14 17 - - - - - - - 26.1 1013.5 -
14/05:30pm SE 14 18 - - - - - - - 26.6 1013.1 -
14/05:24pm SE 14 - - - - - - - - 26.3 1012.8 -
14/05:00pm SE 15 17 - - - - - - - 26.4 1012.7 -
14/04:30pm SE 14 17 - - - - - - - 26.6 1012.3 -
14/04:24pm SE 14 - - - - - - - - 26.3 1012.1 -
14/04:00pm SE 14 16 - - - - - - - 26.6 1012.2 -
14/03:30pm SE 14 16 - - - - - - - 26.3 1012.0 -
14/03:24pm ESE 14 - - - - - - - - 26.3 1011.8 -
14/03:00pm ESE 14 17 - - - - - - - 26.3 1011.8 -
14/02:30pm ESE 13 15 - - - - - - - 26.4 1012.1 -
14/02:24pm ESE 12 - - - - - - - - 26.3 1012.1 -
14/02:00pm ESE 12 15 - - - - - - - 26.4 1012.2 -
14/01:30pm ESE 12 14 - - - - - - - 26.3 1012.6 -
14/01:24pm ESE 12 - - - - - - - - 26.6 1012.5 -
14/01:00pm ESE 12 15 - - - - - - - 26.5 1012.8 -
14/12:30pm ESE 13 15 - - - - - - - 26.3 1013.1 -
14/12:24pm ESE 13 - - - - - - - - 26.4 1013.1 -
14/12:00pm ESE 11 14 - - - - - - - 26.5 1013.6 -
14/11:30am ESE 10 13 - - - - - - - 26.3 1013.9 -
14/11:24am ESE 10 - - - - - - - - 26.5 1014.0 -
14/11:00am ESE 11 13 - - - - - - - 26.2 1014.3 -
14/10:30am ESE 11 13 - - - - - - - 26.3 1014.6 -
14/10:24am SE 11 - - - - - - - - 26.1 1014.4 -
14/10:00am ESE 11 13 - - - - - - - 26.3 1014.7 -
14/09:30am ESE 12 14 - - - - - - - 26.3 1014.7 -
14/09:24am ESE 11 - - - - - - - - 26.5 1014.6 -
14/09:00am ESE 12 13 - - - - - - - 26.5 1014.8 -
14/08:30am ESE 12 14 - - - - - - - 26.4 1014.5 -
14/08:24am ESE 12 - - - - - - - - 26.4 1014.5 -
14/08:00am ESE 13 15 - - - - - - - 26.3 1014.6 -
14/07:30am ESE 13 15 - - - - - - - 26.3 1014.5 -
14/07:24am ESE 13 - - - - - - - - 26.0 1014.4 -
14/07:00am ESE 13 15 - - - - - - - 26.1 1014.4 -
14/06:30am ESE 13 15 - - - - - - - 26.1 1014.0 -
14/06:24am ESE 13 - - - - - - - - 26.0 1013.9 -
14/06:00am E 13 15 - - - - - - - 25.7 1013.7 -
14/05:30am ESE 15 18 - - - - - - - 25.7 1013.1 -
14/05:24am ESE 15 - - - - - - - - 25.7 1012.9 -
14/05:00am ESE 15 18 - - - - - - - 25.6 1012.6 -
14/04:30am ESE 15 18 - - - - - - - 25.8 1012.2 -
14/04:24am ESE 15 - - - - - - - - 25.7 1012.1 -
14/04:00am ESE 14 17 - - - - - - - 25.5 1012.0 -
14/03:30am E 14 17 - - - - - - - 25.7 1011.9 -
14/03:24am E 14 - - - - - - - - 25.6 1011.7 -
14/03:00am E 14 17 - - - - - - - 25.6 1011.6 -
14/02:30am ESE 14 17 - - - - - - - 25.5 1011.7 -
14/02:24am ESE 14 - - - - - - - - 25.2 1011.6 -
14/02:00am E 14 16 - - - - - - - 25.4 1011.8 -

Other Formats:

Comma delimited format used in spreadsheet applications
http://www.bom.gov.au/fwo/IDQ60701/IDQ60701.94290.axf

JavaScript Object Notation format (JSON) in row-major order
http://www.bom.gov.au/fwo/IDQ60701/IDQ60701.94290.json